createdAt,value
2023-01-05T00:00:55.443Z,98131.03
2023-01-05T00:03:22.639Z,98136.69
2023-01-05T00:05:49.500Z,98131.97
2023-01-05T00:08:16.022Z,98138.38
2023-01-05T00:11:01.100Z,98134.44
2023-01-05T00:13:46.349Z,98142.00
2023-01-05T00:16:33.907Z,98138.41
2023-01-05T00:19:18.958Z,98132.81
2023-01-05T00:22:04.358Z,98121.31
2023-01-05T00:24:31.799Z,98128.84
2023-01-05T00:26:58.340Z,98132.03
2023-01-05T00:29:24.889Z,98128.06
2023-01-05T00:31:51.496Z,98120.88
2023-01-05T00:34:18.045Z,98130.41
2023-01-05T00:36:44.614Z,98123.25
2023-01-05T00:39:11.125Z,98130.38
2023-01-05T00:41:37.810Z,98123.59
2023-01-05T00:44:04.519Z,98124.38
2023-01-05T00:46:31.074Z,98116.06
2023-01-05T00:48:57.586Z,98124.44
2023-01-05T00:51:24.347Z,98124.03
2023-01-05T00:53:50.896Z,98122.44
2023-01-05T00:56:17.420Z,98121.25
2023-01-05T00:58:43.992Z,98124.47
2023-01-05T01:01:12.076Z,98115.69
2023-01-05T01:03:39.245Z,98120.88
2023-01-05T01:06:06.318Z,98118.88
2023-01-05T01:08:32.910Z,98123.28
2023-01-05T01:11:07.162Z,98121.66
2023-01-05T01:13:34.050Z,98114.09
2023-01-05T01:16:15.251Z,98122.44
2023-01-05T01:18:42.508Z,98106.94
2023-01-05T01:21:09.567Z,98108.94
2023-01-05T01:23:39.665Z,98104.97
2023-01-05T01:26:07.499Z,98091.41
2023-01-05T01:28:34.867Z,98094.59
2023-01-05T01:31:01.778Z,98083.88
2023-01-05T01:33:28.910Z,98089.06
2023-01-05T01:35:55.852Z,98077.56
2023-01-05T01:38:22.871Z,98084.72
2023-01-05T01:40:50.500Z,98083.09
2023-01-05T01:43:20.325Z,98080.31
2023-01-05T01:45:47.001Z,98073.91
2023-01-05T01:48:18.458Z,98075.50
2023-01-05T01:50:50.392Z,98069.13
2023-01-05T01:53:38.391Z,98058.44
2023-01-05T01:56:09.903Z,98064.38
2023-01-05T01:58:37.364Z,98064.31
2023-01-05T02:01:04.049Z,98061.13
2023-01-05T02:03:31.811Z,98057.13
2023-01-05T02:05:59.645Z,98052.34
2023-01-05T02:08:31.349Z,98045.13
2023-01-05T02:11:24.204Z,98043.53
2023-01-05T02:14:06.376Z,98040.34
2023-01-05T02:17:01.796Z,98043.91
2023-01-05T02:19:52.906Z,98041.56
2023-01-05T02:22:56.938Z,98033.56
2023-01-05T02:25:48.307Z,98034.41
2023-01-05T02:28:20.043Z,98021.28
2023-01-05T02:31:08.831Z,98025.25
2023-01-05T02:33:57.229Z,98014.91
2023-01-05T02:36:28.459Z,98008.53
2023-01-05T02:39:18.526Z,97996.97
2023-01-05T02:42:08.345Z,97994.19
2023-01-05T02:44:34.890Z,97986.22
2023-01-05T02:47:27.945Z,97985.47
2023-01-05T02:50:01.529Z,97982.34
2023-01-05T02:52:37.948Z,97974.47
2023-01-05T02:55:11.536Z,97971.31
2023-01-05T02:58:03.846Z,97962.53
2023-01-05T03:00:42.023Z,97956.16
2023-01-05T03:03:21.744Z,97965.28
2023-01-05T03:05:59.347Z,97967.66
2023-01-05T03:08:32.922Z,97968.88
2023-01-05T03:11:22.455Z,97960.09
2023-01-05T03:13:55.487Z,97969.19
2023-01-05T03:16:28.009Z,97978.28
2023-01-05T03:19:15.560Z,97981.88
2023-01-05T03:22:01.472Z,97975.63
2023-01-05T03:24:47.255Z,97975.22
2023-01-05T03:27:33.117Z,97977.63
2023-01-05T03:30:18.650Z,97966.06
2023-01-05T03:33:11.625Z,97972.78
2023-01-05T03:35:42.875Z,97965.22
2023-01-05T03:38:19.195Z,97960.13
2023-01-05T03:40:47.286Z,97951.81
2023-01-05T03:43:14.220Z,97958.88
2023-01-05T03:45:44.309Z,97954.44
2023-01-05T03:48:10.908Z,97955.59
2023-01-05T03:50:38.083Z,97946.41
2023-01-05T03:53:04.949Z,97944.47
2023-01-05T03:55:31.708Z,97934.56
2023-01-05T03:57:58.253Z,97924.22
2023-01-05T04:00:25.606Z,97930.59
2023-01-05T04:02:52.731Z,97920.16
2023-01-05T04:05:19.453Z,97917.75
2023-01-05T04:07:46.255Z,97917.41
2023-01-05T04:10:12.902Z,97915.00
2023-01-05T04:12:39.461Z,97917.41
2023-01-05T04:15:06.916Z,97906.59
2023-01-05T04:17:33.680Z,97912.19
2023-01-05T04:20:00.242Z,97911.00
2023-01-05T04:22:27.597Z,97909.78
2023-01-05T04:24:54.362Z,97910.59
2023-01-05T04:27:20.952Z,97908.16
2023-01-05T04:29:47.575Z,97900.19
2023-01-05T04:32:14.080Z,97909.00
2023-01-05T04:34:40.617Z,97891.84
2023-01-05T04:37:07.299Z,97894.78
2023-01-05T04:39:33.852Z,97890.44
2023-01-05T04:42:00.409Z,97901.19
2023-01-05T04:44:27.003Z,97893.59
2023-01-05T04:46:53.638Z,97883.66
2023-01-05T04:49:20.197Z,97883.66
2023-01-05T04:51:46.746Z,97891.97
2023-01-05T04:54:13.315Z,97892.34
2023-01-05T04:56:39.962Z,97886.81
2023-01-05T04:59:06.525Z,97888.34
2023-01-05T05:01:33.156Z,97886.75
2023-01-05T05:03:59.834Z,97892.00
2023-01-05T05:06:26.427Z,97896.44
2023-01-05T05:08:53.093Z,97895.25
2023-01-05T05:11:19.674Z,97898.06
2023-01-05T05:13:46.235Z,97896.50
2023-01-05T05:16:12.759Z,97898.84
2023-01-05T05:18:39.289Z,97892.50
2023-01-05T05:21:05.928Z,97894.06
2023-01-05T05:23:32.539Z,97896.44
2023-01-05T05:25:59.117Z,97891.66
2023-01-05T05:28:28.338Z,97904.31
2023-01-05T05:30:58.997Z,97902.34
2023-01-05T05:33:25.843Z,97913.78
2023-01-05T05:35:52.935Z,97925.72
2023-01-05T05:38:19.511Z,97928.06
2023-01-05T05:40:48.655Z,97936.03
2023-01-05T05:43:15.410Z,97928.91
2023-01-05T05:45:49.617Z,97922.94
2023-01-05T05:48:17.363Z,97921.06
2023-01-05T05:50:44.729Z,97911.63
2023-01-05T05:53:11.206Z,97920.34
2023-01-05T05:55:37.753Z,97924.69
2023-01-05T05:58:04.286Z,97920.38
2023-01-05T06:00:30.805Z,97926.00
2023-01-05T06:02:57.442Z,97936.28
2023-01-05T06:05:24.191Z,97930.69
2023-01-05T06:07:50.785Z,97925.25
2023-01-05T06:10:17.538Z,97923.66
2023-01-05T06:12:44.286Z,97917.31
2023-01-05T06:15:11.184Z,97910.13
2023-01-05T06:17:37.774Z,97921.31
2023-01-05T06:20:05.945Z,97916.56
2023-01-05T06:22:32.643Z,97912.56
2023-01-05T06:24:59.189Z,97912.09
2023-01-05T06:27:25.771Z,97912.84
2023-01-05T06:29:52.314Z,97905.25
2023-01-05T06:32:18.858Z,97911.56
2023-01-05T06:34:45.403Z,97903.59
2023-01-05T06:37:11.948Z,97907.53
2023-01-05T06:39:38.507Z,97896.44
2023-01-05T06:42:05.123Z,97897.94
2023-01-05T06:44:31.653Z,97903.53
2023-01-05T06:46:58.166Z,97905.59
2023-01-05T06:49:25.905Z,97892.03
2023-01-05T06:51:52.664Z,97902.34
2023-01-05T06:54:19.219Z,97900.72
2023-01-05T06:56:45.778Z,97897.56
2023-01-05T06:59:13.064Z,97897.22
2023-01-05T07:01:39.549Z,97896.81
2023-01-05T07:04:06.374Z,97893.22
2023-01-05T07:06:35.724Z,97888.84
2023-01-05T07:09:02.610Z,97884.88
2023-01-05T07:11:29.216Z,97886.81
2023-01-05T07:13:55.818Z,97894.72
2023-01-05T07:16:22.384Z,97893.19
2023-01-05T07:18:49.019Z,97897.22
2023-01-05T07:21:15.588Z,97896.84
2023-01-05T07:23:42.180Z,97898.03
2023-01-05T07:26:09.796Z,97896.34
2023-01-05T07:28:37.915Z,97889.13
2023-01-05T07:31:05.230Z,97893.81
2023-01-05T07:33:36.097Z,97895.47
2023-01-05T07:36:06.119Z,97891.44
2023-01-05T07:38:32.949Z,97888.25
2023-01-05T07:41:01.163Z,97877.53
2023-01-05T07:43:28.372Z,97879.84
2023-01-05T07:45:59.704Z,97881.41
2023-01-05T07:48:26.446Z,97874.91
2023-01-05T07:50:53.349Z,97876.16
2023-01-05T07:53:20.064Z,97880.81
2023-01-05T07:55:56.012Z,97868.91
2023-01-05T07:58:22.556Z,97863.34
2023-01-05T08:00:49.174Z,97865.66
2023-01-05T08:03:16.149Z,97869.59
2023-01-05T08:05:42.736Z,97863.19
2023-01-05T08:08:09.242Z,97870.13
2023-01-05T08:10:38.657Z,97868.28
2023-01-05T08:13:25.749Z,97861.47
2023-01-05T08:15:54.018Z,97855.28
2023-01-05T08:18:21.806Z,97847.28
2023-01-05T08:20:56.364Z,97846.34
2023-01-05T08:23:25.371Z,97845.63
2023-01-05T08:25:53.195Z,97833.03
2023-01-05T08:28:19.827Z,97839.38
2023-01-05T08:30:46.412Z,97819.44
2023-01-05T08:33:12.975Z,97826.97
2023-01-05T08:35:41.101Z,97823.06
2023-01-05T08:38:07.674Z,97823.53
2023-01-05T08:40:34.277Z,97823.50
2023-01-05T08:43:00.839Z,97822.13
2023-01-05T08:45:27.374Z,97814.00
2023-01-05T08:47:53.895Z,97818.53
2023-01-05T08:50:20.411Z,97815.69
2023-01-05T08:52:46.986Z,97808.66
2023-01-05T08:55:13.519Z,97807.13
2023-01-05T08:57:40.174Z,97808.84
2023-01-05T09:00:07.613Z,97806.66
2023-01-05T09:02:34.381Z,97807.31
2023-01-05T09:05:01.219Z,97806.13
2023-01-05T09:07:28.471Z,97785.16
2023-01-05T09:09:55.056Z,97774.72
2023-01-05T09:12:21.594Z,97756.72
2023-01-05T09:14:48.178Z,97742.53
2023-01-05T09:17:14.751Z,97742.00
2023-01-05T09:19:41.479Z,97728.47
2023-01-05T09:22:08.079Z,97723.97
2023-01-05T09:24:34.637Z,97715.97
2023-01-05T09:27:01.202Z,97712.38
2023-01-05T09:29:27.779Z,97729.34
2023-01-05T09:31:54.370Z,97730.66
2023-01-05T09:34:21.817Z,97725.47
2023-01-05T09:36:48.476Z,97738.75
2023-01-05T09:39:15.145Z,97744.38
2023-01-05T09:41:48.804Z,97734.16
2023-01-05T09:44:58.371Z,97742.69
2023-01-05T09:47:44.211Z,97732.31
2023-01-05T09:50:23.551Z,97713.28
2023-01-05T09:52:52.876Z,97706.81
2023-01-05T09:55:21.670Z,97708.91
2023-01-05T09:58:02.253Z,97696.72
2023-01-05T10:00:29.828Z,97695.84
2023-01-05T10:03:03.803Z,97681.97
2023-01-05T10:05:34.139Z,97671.50
2023-01-05T10:08:05.045Z,97661.72
2023-01-05T10:10:40.823Z,97657.78
2023-01-05T10:13:17.525Z,97652.84
2023-01-05T10:15:49.005Z,97636.59
2023-01-05T10:18:19.156Z,97631.22
2023-01-05T10:20:54.697Z,97604.59
2023-01-05T10:23:26.935Z,97607.53
2023-01-05T10:26:02.388Z,97603.53
2023-01-05T10:28:33.427Z,97602.97
2023-01-05T10:31:13.411Z,97594.69
2023-01-05T10:33:59.177Z,97606.31
2023-01-05T10:40:11.996Z,97592.25
2023-01-05T10:42:59.400Z,97587.72
2023-01-05T10:45:29.921Z,97586.69
2023-01-05T10:47:58.059Z,97578.09
2023-01-05T10:50:39.767Z,97572.47
2023-01-05T10:53:28.679Z,97572.38
2023-01-05T10:56:06.025Z,97571.75
2023-01-05T10:58:41.910Z,97571.97
2023-01-05T11:01:27.908Z,97553.38
2023-01-05T11:04:35.455Z,97550.59
2023-01-05T11:07:07.250Z,97547.63
2023-01-05T11:09:40.425Z,97549.28
2023-01-05T11:12:17.429Z,97549.13
2023-01-05T11:14:54.745Z,97550.25
2023-01-05T11:17:27.881Z,97534.47
2023-01-05T11:19:57.449Z,97536.66
2023-01-05T11:22:37.125Z,97530.22
2023-01-05T11:25:27.528Z,97515.81
2023-01-05T11:28:06.283Z,97509.38
2023-01-05T11:30:33.557Z,97503.09
2023-01-05T11:33:01.829Z,97494.19
2023-01-05T11:35:38.397Z,97493.56
2023-01-05T11:38:05.975Z,97487.63
2023-01-05T11:40:35.891Z,97479.00
2023-01-05T11:43:12.401Z,97478.53
2023-01-05T11:45:46.386Z,97461.88
2023-01-05T11:48:20.920Z,97463.78
2023-01-05T11:50:52.570Z,97461.59
2023-01-05T11:53:26.898Z,97460.00
2023-01-05T11:56:22.695Z,97453.09
2023-01-05T11:58:52.241Z,97454.69
2023-01-05T12:01:30.623Z,97451.53
2023-01-05T12:04:03.754Z,97447.59
2023-01-05T12:06:42.375Z,97439.13
2023-01-05T12:09:47.820Z,97440.84
2023-01-05T12:12:31.566Z,97446.13
2023-01-05T12:15:37.225Z,97446.22
2023-01-05T12:18:41.523Z,97441.44
2023-01-05T12:21:24.814Z,97441.44
2023-01-05T12:24:33.819Z,97437.75
2023-01-05T12:27:15.599Z,97427.66
2023-01-05T12:31:29.378Z,97419.91
2023-01-05T12:35:39.097Z,97409.69
2023-01-05T12:38:20.193Z,97407.16
2023-01-05T12:40:52.788Z,97408.13
2023-01-05T12:43:41.875Z,97400.91
2023-01-05T12:46:13.302Z,97407.97
2023-01-05T12:48:48.511Z,97398.91
2023-01-05T12:51:22.422Z,97394.06
2023-01-05T12:54:14.702Z,97392.13
2023-01-05T12:57:00.000Z,97395.53
2023-01-05T12:59:37.811Z,97387.91
2023-01-05T13:02:07.293Z,97370.34
2023-01-05T13:04:47.751Z,97375.34
2023-01-05T13:07:30.180Z,97374.44
2023-01-05T13:10:05.489Z,97358.56
2023-01-05T13:12:34.393Z,97356.50
2023-01-05T13:15:16.521Z,97346.97
2023-01-05T13:17:47.495Z,97344.47
2023-01-05T13:20:26.111Z,97348.34
2023-01-05T13:22:59.479Z,97343.47
2023-01-05T13:25:31.434Z,97355.38
2023-01-05T13:27:58.165Z,97357.91
2023-01-05T13:30:29.652Z,97360.16
2023-01-05T13:33:27.183Z,97352.69
2023-01-05T13:36:18.049Z,97361.56
2023-01-05T13:38:55.853Z,97355.91
2023-01-05T13:41:31.805Z,97361.88
2023-01-05T13:44:11.571Z,97359.50
2023-01-05T13:46:59.464Z,97365.94
2023-01-05T13:49:44.240Z,97359.44
2023-01-05T13:52:29.602Z,97365.88
2023-01-05T13:55:02.710Z,97374.44
2023-01-05T13:57:41.233Z,97367.84
2023-01-05T14:00:21.531Z,97372.66
2023-01-05T14:03:13.980Z,97377.53
2023-01-05T14:05:40.547Z,97387.50
2023-01-05T14:08:19.298Z,97396.91
2023-01-05T14:11:07.554Z,97395.47
2023-01-05T14:13:53.166Z,97401.16
2023-01-05T14:16:35.416Z,97405.56
2023-01-05T14:19:13.499Z,97399.44
2023-01-05T14:21:48.894Z,97406.16
2023-01-05T14:27:13.563Z,97394.84
2023-01-05T14:29:48.926Z,97389.84
2023-01-05T14:32:36.650Z,97398.31
2023-01-05T14:35:12.433Z,97394.84
2023-01-05T14:37:46.806Z,97395.28
2023-01-05T14:40:42.343Z,97390.06
2023-01-05T14:43:21.033Z,97390.81
2023-01-05T14:46:05.178Z,97387.53
2023-01-05T14:48:42.958Z,97375.81
2023-01-05T14:51:29.936Z,97382.75
2023-01-05T14:54:03.057Z,97382.06
2023-01-05T14:56:32.517Z,97397.56
2023-01-05T14:59:12.379Z,97395.81
2023-01-05T15:01:48.150Z,97384.59
2023-01-05T15:04:29.963Z,97383.75
2023-01-05T15:07:05.413Z,97384.97
2023-01-05T15:09:47.325Z,97381.94
2023-01-05T15:12:29.417Z,97381.94
2023-01-05T15:15:20.538Z,97381.06
2023-01-05T15:18:02.230Z,97378.41
2023-01-05T15:21:05.924Z,97378.38
2023-01-05T15:24:10.182Z,97373.78
2023-01-05T15:26:54.802Z,97380.06
2023-01-05T15:29:54.404Z,97379.50
2023-01-05T15:32:27.077Z,97379.38
2023-01-05T15:35:15.359Z,97382.84
2023-01-05T15:37:43.216Z,97388.91
2023-01-05T15:40:15.833Z,97382.63
2023-01-05T15:42:44.575Z,97385.97
2023-01-05T15:45:30.057Z,97379.69
2023-01-05T15:48:00.852Z,97378.13
2023-01-05T15:50:43.988Z,97382.22
2023-01-05T15:53:23.562Z,97380.50
2023-01-05T15:55:52.136Z,97391.03
2023-01-05T15:58:19.928Z,97396.03
2023-01-05T16:01:00.342Z,97392.50
2023-01-05T16:03:32.836Z,97395.25
2023-01-05T16:06:02.973Z,97393.66
2023-01-05T16:08:31.825Z,97406.09
2023-01-05T16:11:01.582Z,97405.50
2023-01-05T16:13:39.297Z,97405.69
2023-01-05T16:16:24.828Z,97410.44
2023-01-05T16:19:09.967Z,97417.84
2023-01-05T16:21:47.644Z,97415.31
2023-01-05T16:24:19.576Z,97417.41
2023-01-05T16:26:46.243Z,97422.31
2023-01-05T16:29:49.087Z,97429.00
2023-01-05T16:32:38.064Z,97426.31
2023-01-05T16:35:23.755Z,97427.91
2023-01-05T16:38:13.088Z,97420.00
2023-01-05T16:40:48.390Z,97419.03
2023-01-05T16:43:31.524Z,97427.22
2023-01-05T16:46:19.019Z,97429.97
2023-01-05T16:48:53.935Z,97423.47
2023-01-05T16:51:32.692Z,97431.19
2023-01-05T16:54:16.887Z,97424.91
2023-01-05T16:56:57.853Z,97441.50
2023-01-05T16:59:39.968Z,97438.56
2023-01-05T17:02:36.349Z,97439.22
2023-01-05T17:05:03.012Z,97435.34
2023-01-05T17:07:29.921Z,97433.03
2023-01-05T17:09:56.570Z,97442.84
2023-01-05T17:12:23.187Z,97441.84
2023-01-05T17:14:49.778Z,97445.84
2023-01-05T17:17:16.323Z,97440.97
2023-01-05T17:19:42.938Z,97439.59
2023-01-05T17:22:12.702Z,97446.41
2023-01-05T17:24:40.153Z,97448.22
2023-01-05T17:27:06.781Z,97462.16
2023-01-05T17:29:33.583Z,97461.06
2023-01-05T17:32:00.283Z,97457.19
2023-01-05T17:34:26.993Z,97455.81
2023-01-05T17:36:57.091Z,97464.19
2023-01-05T17:39:23.737Z,97467.84
2023-01-05T17:41:50.709Z,97474.38
2023-01-05T17:44:17.476Z,97472.03
2023-01-05T17:46:46.566Z,97476.22
2023-01-05T17:49:19.875Z,97466.94
2023-01-05T17:51:47.271Z,97470.38
2023-01-05T17:54:14.102Z,97481.41
2023-01-05T17:56:40.702Z,97477.50
2023-01-05T17:59:07.536Z,97474.44
2023-01-05T18:01:34.336Z,97480.53
2023-01-05T18:04:01.628Z,97480.16
2023-01-05T18:06:28.266Z,97471.41
2023-01-05T18:08:55.025Z,97473.78
2023-01-05T18:11:21.981Z,97475.84
2023-01-05T18:13:48.778Z,97482.16
2023-01-05T18:16:15.858Z,97475.09
2023-01-05T18:18:42.659Z,97478.50
2023-01-05T18:21:09.317Z,97479.25
2023-01-05T18:23:36.203Z,97479.97
2023-01-05T18:26:08.613Z,97483.78
2023-01-05T18:28:37.026Z,97484.66
2023-01-05T18:31:14.404Z,97484.19
2023-01-05T18:33:41.627Z,97485.06
2023-01-05T18:36:09.630Z,97480.00
2023-01-05T18:38:37.781Z,97477.75
2023-01-05T18:41:05.124Z,97467.63
2023-01-05T18:43:32.522Z,97476.75
2023-01-05T18:45:59.167Z,97470.03
2023-01-05T18:48:25.747Z,97471.66
2023-01-05T18:50:52.403Z,97465.81
2023-01-05T18:53:20.634Z,97464.59
2023-01-05T18:55:47.905Z,97472.88
2023-01-05T18:58:14.810Z,97479.13
2023-01-05T19:00:43.411Z,97486.06
2023-01-05T19:03:11.064Z,97476.56
2023-01-05T19:05:40.828Z,97480.41
2023-01-05T19:08:09.724Z,97488.22
2023-01-05T19:10:37.584Z,97485.44
2023-01-05T19:13:04.706Z,97482.28
2023-01-05T19:15:36.199Z,97481.88
2023-01-05T19:18:04.362Z,97478.50
2023-01-05T19:20:31.890Z,97487.41
2023-01-05T19:22:59.912Z,97491.94
2023-01-05T19:25:26.537Z,97499.22
2023-01-05T19:27:53.329Z,97494.91
2023-01-05T19:30:22.052Z,97500.13
2023-01-05T19:32:48.627Z,97508.91
2023-01-05T19:35:15.420Z,97508.06
2023-01-05T19:37:42.581Z,97508.47
2023-01-05T19:40:10.206Z,97509.69
2023-01-05T19:42:36.846Z,97504.13
2023-01-05T19:45:03.814Z,97507.28
2023-01-05T19:47:30.376Z,97505.72
2023-01-05T19:49:56.925Z,97505.84
2023-01-05T19:52:29.505Z,97515.94
2023-01-05T19:54:56.494Z,97510.81
2023-01-05T19:57:23.200Z,97519.53
2023-01-05T19:59:51.316Z,97525.41
2023-01-05T20:02:18.138Z,97521.03
2023-01-05T20:04:46.639Z,97522.25
2023-01-05T20:07:13.662Z,97525.03
2023-01-05T20:09:40.620Z,97532.19
2023-01-05T20:12:14.433Z,97530.59
2023-01-05T20:14:42.581Z,97524.28
2023-01-05T20:17:10.782Z,97526.38
2023-01-05T20:19:38.103Z,97524.41
2023-01-05T20:22:05.925Z,97536.31
2023-01-05T20:24:34.321Z,97537.91
2023-01-05T20:27:04.435Z,97539.50
2023-01-05T20:29:31.113Z,97545.03
2023-01-05T20:32:00.708Z,97549.03
2023-01-05T20:34:32.058Z,97552.19
2023-01-05T20:36:59.747Z,97557.03
2023-01-05T20:39:26.514Z,97556.63
2023-01-05T20:41:54.331Z,97565.34
2023-01-05T20:44:24.960Z,97561.34
2023-01-05T20:46:53.791Z,97564.13
2023-01-05T20:49:21.933Z,97567.31
2023-01-05T20:51:49.200Z,97573.66
2023-01-05T20:54:15.774Z,97582.38
2023-01-05T20:56:43.837Z,97580.78
2023-01-05T20:59:16.984Z,97580.41
2023-01-05T21:01:44.849Z,97589.50
2023-01-05T21:04:12.165Z,97576.03
2023-01-05T21:06:38.582Z,97587.13
2023-01-05T21:09:06.120Z,97578.44
2023-01-05T21:11:32.817Z,97576.84
2023-01-05T21:14:00.481Z,97582.41
2023-01-05T21:16:36.962Z,97585.56
2023-01-05T21:19:04.000Z,97585.19
2023-01-05T21:21:32.010Z,97586.38
2023-01-05T21:23:58.881Z,97583.22
2023-01-05T21:26:26.575Z,97581.22
2023-01-05T21:28:54.207Z,97591.88
2023-01-05T21:31:24.264Z,97594.28
2023-01-05T21:33:51.650Z,97595.06
2023-01-05T21:36:28.337Z,97600.59
2023-01-05T21:39:01.359Z,97606.53
2023-01-05T21:41:49.721Z,97610.13
2023-01-05T21:44:16.854Z,97606.16
2023-01-05T21:46:44.046Z,97603.78
2023-01-05T21:49:11.575Z,97604.56
2023-01-05T21:51:57.230Z,97606.13
2023-01-05T21:54:42.625Z,97601.75
2023-01-05T21:57:09.514Z,97601.75
2023-01-05T21:59:36.244Z,97593.44
2023-01-05T22:02:02.959Z,97613.66
2023-01-05T22:04:29.511Z,97624.78
2023-01-05T22:06:56.086Z,97618.84
2023-01-05T22:09:22.678Z,97620.44
2023-01-05T22:11:49.223Z,97626.75
2023-01-05T22:14:16.061Z,97619.63
2023-01-05T22:16:42.910Z,97620.44
2023-01-05T22:19:10.946Z,97632.31
2023-01-05T22:21:38.177Z,97632.31
2023-01-05T22:24:05.449Z,97633.91
2023-01-05T22:26:32.044Z,97628.34
2023-01-05T22:28:58.580Z,97627.53
2023-01-05T22:31:27.831Z,97627.53
2023-01-05T22:33:57.459Z,97623.59
2023-01-05T22:36:25.306Z,97623.59
2023-01-05T22:38:53.297Z,97625.19
2023-01-05T22:41:23.835Z,97624.00
2023-01-05T22:43:51.162Z,97633.91
2023-01-05T22:46:19.470Z,97630.72
2023-01-05T22:48:47.412Z,97633.91
2023-01-05T22:51:23.937Z,97630.72
2023-01-05T22:53:50.988Z,97630.72
2023-01-05T22:56:19.835Z,97629.94
2023-01-05T22:58:46.505Z,97647.31
2023-01-05T23:01:21.402Z,97634.69
2023-01-05T23:03:48.996Z,97637.84
2023-01-05T23:06:16.201Z,97639.41
2023-01-05T23:08:43.415Z,97635.84
2023-01-05T23:11:13.085Z,97642.59
2023-01-05T23:13:40.161Z,97642.16
2023-01-05T23:16:07.532Z,97646.13
2023-01-05T23:18:36.526Z,97652.44
2023-01-05T23:21:05.601Z,97654.03
2023-01-05T23:23:32.686Z,97662.34
2023-01-05T23:25:59.566Z,97665.13
2023-01-05T23:28:27.929Z,97650.44
2023-01-05T23:30:55.883Z,97667.50
2023-01-05T23:33:24.759Z,97661.53
2023-01-05T23:35:53.563Z,97663.91
2023-01-05T23:38:21.042Z,97668.63
2023-01-05T23:40:49.857Z,97679.34
2023-01-05T23:43:19.259Z,97675.00
2023-01-05T23:45:46.832Z,97680.13
2023-01-05T23:48:14.471Z,97685.25
2023-01-05T23:50:45.201Z,97694.78
2023-01-05T23:53:12.757Z,97686.84
2023-01-05T23:55:40.766Z,97698.72
2023-01-05T23:58:08.419Z,97695.59
